Time;durP1;ratioP1;P1;durP2;ratioP2;P2;SDS_P1;SDS_P2;PMS_P1;PMS_P2;Temp;Humidity;BMP_temperature;BMP_pressure;BME280_temperature;BME280_humidity;BME280_pressure;Samples;Min_cycle;Max_cycle;Signal;HPM_P1;HPM_P2
2022/01/24 00:00:12;;;;;;;;;41.00;37.00;;;;;5.35;86.93;102520.53;4905818;29;45744;-85
2022/01/24 00:02:39;;;;;;;;;44.00;34.67;;;;;5.35;86.86;102517.91;4906521;29;44776;-84
2022/01/24 00:05:05;;;;;;;;;43.00;37.00;;;;;5.27;87.63;102498.03;4889504;29;47159;-84
2022/01/24 00:07:32;;;;;;;;;34.33;31.67;;;;;5.37;87.42;102511.00;4897518;29;45588;-83
2022/01/24 00:10:01;;;;;;;;;40.33;37.00;;;;;5.34;87.29;102509.88;4871362;29;45431;-84
2022/01/24 00:12:42;;;;;;;;;43.33;38.67;;;;;5.26;87.12;102501.47;4878508;29;45914;-84
2022/01/24 00:17:37;;;;;;;;;41.33;38.00;;;;;5.29;87.55;102504.31;4893299;29;45399;-84
2022/01/24 00:28:19;;;;;;;;;36.67;35.00;;;;;5.19;87.88;102488.69;4891354;29;45444;-84
2022/01/24 00:30:45;;;;;;;;;39.67;35.67;;;;;5.21;87.46;102487.06;4875255;29;45531;-84
2022/01/24 00:33:10;;;;;;;;;46.00;36.00;;;;;5.17;87.45;102482.41;4875652;29;45679;-84
2022/01/24 00:35:36;;;;;;;;;36.67;32.67;;;;;5.17;87.39;102491.25;4875164;29;48301;-84
2022/01/24 00:38:02;;;;;;;;;38.67;34.00;;;;;5.16;87.58;102485.88;4891997;29;45303;-84
2022/01/24 00:40:35;;;;;;;;;38.00;36.67;;;;;5.16;87.80;102477.97;4875129;29;45727;-84
2022/01/24 00:43:02;;;;;;;;;48.67;38.67;;;;;5.16;87.71;102491.16;4875727;29;45359;-85
2022/01/24 00:45:52;;;;;;;;;48.25;42.75;;;;;5.16;87.88;102483.22;4874676;29;47617;-84
2022/01/24 00:48:31;;;;;;;;;37.00;32.00;;;;;5.13;87.62;102477.75;4875729;29;45711;-84
2022/01/24 00:56:11;;;;;;;;;35.25;34.50;;;;;5.09;87.37;102474.03;4911195;29;45125;-85
2022/01/24 00:58:37;;;;;;;;;48.67;41.67;;;;;5.01;88.41;102462.97;4893958;29;45567;-84
2022/01/24 01:01:03;;;;;;;;;50.00;40.75;;;;;5.00;87.88;102462.88;4911562;29;45510;-84
2022/01/24 01:03:29;;;;;;;;;39.67;35.33;;;;;5.02;88.17;102471.78;4896187;29;45447;-84
2022/01/24 01:06:08;;;;;;;;;43.25;39.50;;;;;5.02;88.34;102469.16;4912970;29;45096;-85
2022/01/24 01:19:35;;;;;;;;;46.50;40.50;;;;;4.99;88.62;102477.78;4912459;29;44804;-85
2022/01/24 01:22:01;;;;;;;;;40.67;34.67;;;;;4.96;88.76;102469.66;4893645;29;45605;-85
2022/01/24 01:24:39;;;;;;;;;41.00;38.50;;;;;4.94;88.25;102479.19;4895204;29;45421;-84
2022/01/24 01:27:14;;;;;;;;;46.75;40.00;;;;;4.93;88.31;102466.84;4911741;29;45318;-84
2022/01/24 01:30:01;;;;;;;;;45.00;37.50;;;;;4.92;88.42;102467.66;4892148;29;45419;-84
2022/01/24 01:54:18;;;;;;;;;39.00;35.33;;;;;4.93;88.76;102469.50;4832316;29;45456;-84
2022/01/24 01:56:44;;;;;;;;;40.50;38.25;;;;;4.92;88.75;102478.19;4831323;29;45468;-84
2022/01/24 01:59:09;;;;;;;;;43.75;36.75;;;;;4.90;88.81;102466.63;4832441;29;47671;-84
2022/01/24 02:01:36;;;;;;;;;36.50;36.00;;;;;4.93;88.47;102474.75;4833906;29;45446;-85
2022/01/24 02:04:05;;;;;;;;;42.25;41.00;;;;;4.72;88.95;102445.25;4833768;29;45403;-85
2022/01/24 02:06:31;;;;;;;;;37.25;33.75;;;;;4.84;88.21;102466.25;4832913;29;45450;-85
2022/01/24 02:09:06;;;;;;;;;49.50;40.50;;;;;4.93;89.43;102473.84;4818016;29;47244;-85
2022/01/24 02:11:31;;;;;;;;;46.50;42.00;;;;;4.82;88.77;102465.22;4823503;29;45550;-85
2022/01/24 02:14:03;;;;;;;;;43.25;36.75;;;;;4.87;88.74;102477.00;4800146;29;45421;-85
2022/01/24 02:22:05;;;;;;;;;47.25;41.25;;;;;4.77;88.96;102450.84;4805068;29;45390;-85
2022/01/24 02:24:42;;;;;;;;;51.50;43.50;;;;;4.92;88.19;102459.75;4837783;29;44934;-85
2022/01/24 02:27:10;;;;;;;;;43.00;40.00;;;;;4.85;89.12;102453.97;4851110;29;45474;-86
2022/01/24 02:32:08;;;;;;;;;39.75;38.75;;;;;4.73;88.70;102443.56;4850665;29;45567;-85
2022/01/24 02:34:38;;;;;;;;;42.50;35.25;;;;;4.79;89.30;102460.69;4851534;29;45607;-85
2022/01/24 02:37:09;;;;;;;;;42.00;37.00;;;;;4.78;89.06;102455.28;4835870;29;45412;-85
2022/01/24 02:39:54;;;;;;;;;30.67;28.67;;;;;4.69;89.41;102436.28;4837240;29;47233;-85
2022/01/24 02:51:14;;;;;;;;;36.00;33.00;;;;;4.74;89.37;102451.53;4860006;29;45513;-85
2022/01/24 02:53:40;;;;;;;;;36.33;31.67;;;;;4.68;88.87;102442.34;4868436;29;45556;-86
2022/01/24 02:56:06;;;;;;;;;40.67;35.00;;;;;4.72;89.00;102437.34;4868768;29;45313;-85
2022/01/24 02:58:32;;;;;;;;;40.67;35.67;;;;;4.73;89.34;102439.19;4884013;29;45754;-85
2022/01/24 03:00:58;;;;;;;;;46.00;40.67;;;;;4.69;88.87;102441.53;4892634;29;47916;-85
2022/01/24 03:03:23;;;;;;;;;47.67;41.00;;;;;4.67;89.17;102437.88;4892728;29;44797;-86
2022/01/24 03:05:49;;;;;;;;;48.75;41.00;;;;;4.68;88.62;102443.25;4892625;29;45480;-86
2022/01/24 03:08:15;;;;;;;;;49.00;43.50;;;;;4.66;89.17;102441.31;4893605;29;44976;-85
2022/01/24 03:10:46;;;;;;;;;52.75;43.00;;;;;4.59;89.06;102451.47;4910062;28;45339;-85
2022/01/24 03:15:52;;;;;;;;;57.00;46.50;;;;;4.47;88.78;102440.13;4908675;29;45595;-86
2022/01/24 03:18:19;;;;;;;;;56.25;44.00;;;;;4.47;88.67;102428.69;4891269;29;44878;-86
2022/01/24 03:20:45;;;;;;;;;54.00;42.25;;;;;4.35;89.13;102415.59;4891515;29;45894;-86
2022/01/24 03:23:17;;;;;;;;;54.75;43.75;;;;;4.40;88.63;102427.34;4907986;29;45355;-86
2022/01/24 03:25:43;;;;;;;;;55.75;44.00;;;;;4.25;89.44;102407.91;4875760;29;45504;-86
2022/01/24 03:28:09;;;;;;;;;45.50;40.75;;;;;4.31;89.75;102421.47;4891483;29;44759;-85
2022/01/24 03:30:36;;;;;;;;;53.25;43.25;;;;;4.28;88.71;102427.47;4890750;29;47162;-86
2022/01/24 03:33:02;;;;;;;;;47.50;40.00;;;;;4.10;89.66;102392.91;4908933;29;45768;-85
2022/01/24 03:35:28;;;;;;;;;44.00;40.00;;;;;4.23;89.67;102407.78;4893265;29;45474;-86
2022/01/24 03:37:54;;;;;;;;;42.50;40.00;;;;;4.24;89.45;102413.97;4893098;28;45383;-86
2022/01/24 03:40:19;;;;;;;;;55.25;41.00;;;;;4.28;89.80;102416.00;4908962;29;45350;-86
2022/01/24 03:42:45;;;;;;;;;50.00;43.75;;;;;4.23;89.20;102407.78;4891633;29;45378;-85
2022/01/24 03:45:12;;;;;;;;;50.50;43.00;;;;;4.25;89.73;102413.16;4890804;29;45569;-85
2022/01/24 03:47:59;;;;;;;;;39.75;38.25;;;;;4.28;89.17;102402.81;4910231;29;45414;-85
2022/01/24 03:50:24;;;;;;;;;53.75;43.00;;;;;4.25;89.42;102410.53;4893416;28;47645;-85
2022/01/24 03:52:50;;;;;;;;;57.50;47.00;;;;;4.25;89.87;102407.91;4892042;29;45481;-85
2022/01/24 03:55:16;;;;;;;;;52.25;43.25;;;;;4.10;89.48;102392.91;4893092;29;45479;-85
2022/01/24 03:57:41;;;;;;;;;49.25;43.50;;;;;4.09;89.72;102385.81;4893490;29;45814;-85
2022/01/24 04:00:09;;;;;;;;;60.00;44.25;;;;;4.24;89.14;102408.69;4894649;29;46961;-85
2022/01/24 04:02:35;;;;;;;;;62.75;47.00;;;;;4.06;90.14;102382.97;4894044;29;45428;-85
2022/01/24 04:05:00;;;;;;;;;60.75;44.25;;;;;4.19;89.83;102408.41;4908249;29;45484;-85
2022/01/24 04:07:26;;;;;;;;;55.25;43.25;;;;;4.20;90.11;102400.63;4890058;29;45778;-84
2022/01/24 04:09:51;;;;;;;;;48.00;40.00;;;;;4.12;89.70;102387.72;4890421;29;46876;-85
2022/01/24 04:12:17;;;;;;;;;54.50;42.00;;;;;4.18;89.70;102401.28;4889660;29;45776;-85
2022/01/24 04:22:30;;;;;;;;;53.75;43.25;;;;;4.09;89.97;102395.44;4892100;29;45405;-86
2022/01/24 04:25:01;;;;;;;;;55.25;43.50;;;;;4.06;89.99;102396.16;4875437;29;45106;-85
2022/01/24 04:27:28;;;;;;;;;46.75;40.25;;;;;4.03;89.62;102395.94;4875068;29;44841;-85
2022/01/24 04:29:54;;;;;;;;;44.33;39.67;;;;;3.98;90.13;102398.25;4872116;29;47175;-85
2022/01/24 04:32:21;;;;;;;;;52.75;44.50;;;;;4.04;89.47;102402.09;4888832;29;45463;-84
2022/01/24 04:35:42;;;;;;;;;44.25;41.75;;;;;4.10;90.04;102405.13;4874185;29;45794;-85
2022/01/24 04:38:08;;;;;;;;;47.50;43.25;;;;;3.97;89.93;102403.41;4873851;29;45402;-86
2022/01/24 04:40:34;;;;;;;;;54.50;43.50;;;;;4.00;89.64;102414.16;4874226;29;47159;-85
2022/01/24 04:43:20;;;;;;;;;57.00;43.00;;;;;4.00;90.13;102414.16;4889620;29;45370;-84
2022/01/24 04:54:25;;;;;;;;;45.00;40.75;;;;;3.95;89.61;102402.41;4832547;29;45497;-84
2022/01/24 04:56:40;;;;;;;;;49.50;44.00;;;;;3.93;89.69;102397.03;4832254;29;44943;-85
2022/01/24 04:59:06;;;;;;;;;48.25;41.50;;;;;3.93;89.55;102401.38;4834743;29;45347;-85
2022/01/24 05:01:32;;;;;;;;;44.25;40.50;;;;;3.91;89.68;102392.47;4818207;29;47530;-85
2022/01/24 05:03:58;;;;;;;;;43.25;40.50;;;;;3.89;89.98;102395.00;4834980;29;45425;-85
2022/01/24 05:07:15;;;;;;;;;54.00;45.25;;;;;3.97;89.95;102409.59;4820474;29;45448;-84
2022/01/24 05:09:50;;;;;;;;;50.25;43.50;;;;;3.75;89.59;102378.25;4835665;29;45206;-85
2022/01/24 05:23:37;;;;;;;;;38.25;34.50;;;;;3.88;89.98;102395.81;4836202;29;45994;-84
2022/01/24 05:26:07;;;;;;;;;45.50;38.75;;;;;3.95;90.31;102407.66;4835813;29;45474;-84
2022/01/24 05:28:34;;;;;;;;;45.50;39.75;;;;;3.95;90.32;102400.66;4854691;29;45431;-85
2022/01/24 05:31:03;;;;;;;;;48.00;37.00;;;;;3.98;90.02;102400.00;4895291;29;45225;-84
2022/01/24 05:33:30;;;;;;;;;41.00;36.75;;;;;3.94;90.09;102392.69;4875943;29;47544;-85
2022/01/24 05:35:55;;;;;;;;;56.00;44.25;;;;;3.93;89.70;102394.38;4874857;29;45331;-86
2022/01/24 05:38:22;;;;;;;;;51.75;45.25;;;;;3.86;90.11;102388.59;4875584;29;45390;-86
2022/01/24 05:40:48;;;;;;;;;51.25;42.75;;;;;3.86;90.12;102394.81;4876159;29;45415;-87
2022/01/24 05:43:13;;;;;;;;;47.75;41.50;;;;;3.90;90.12;102398.53;4875094;29;48525;-85
2022/01/24 05:45:41;;;;;;;;;43.75;35.00;;;;;3.92;90.54;102402.16;4875793;29;45484;-85
2022/01/24 05:48:07;;;;;;;;;40.25;38.00;;;;;3.86;89.66;102391.22;4876038;29;45754;-86
2022/01/24 05:50:32;;;;;;;;;43.75;36.50;;;;;3.92;90.18;102394.28;4877278;29;45464;-86
2022/01/24 05:52:58;;;;;;;;;38.25;37.25;;;;;3.93;90.86;102386.50;4894558;29;46284;-85
2022/01/24 05:55:24;;;;;;;;;42.00;33.67;;;;;3.95;90.75;102389.25;4878083;29;45353;-86
2022/01/24 05:57:52;;;;;;;;;53.00;38.00;;;;;3.96;90.43;102391.06;4894765;29;45178;-85
2022/01/24 06:00:18;;;;;;;;;43.00;35.67;;;;;3.92;90.26;102381.13;4877062;29;45527;-86
2022/01/24 06:02:43;;;;;;;;;41.75;38.00;;;;;3.93;90.34;102393.47;4894397;29;46061;-86
2022/01/24 06:05:09;;;;;;;;;45.00;42.50;;;;;3.91;90.38;102392.47;4890814;29;45445;-85
2022/01/24 06:07:34;;;;;;;;;43.25;39.75;;;;;3.92;90.29;102391.66;4896519;29;45517;-85
2022/01/24 06:10:00;;;;;;;;;41.00;36.33;;;;;3.81;90.87;102376.03;4895444;29;45544;-85
2022/01/24 06:12:26;;;;;;;;;47.25;40.25;;;;;3.88;90.37;102392.25;4912996;29;46185;-85
2022/01/24 06:14:52;;;;;;;;;45.33;39.00;;;;;3.90;90.54;102402.09;4895305;29;45233;-86
2022/01/24 06:17:18;;;;;;;;;48.67;40.67;;;;;3.87;90.26;102393.97;4897612;29;45423;-86
2022/01/24 06:19:45;;;;;;;;;50.25;42.25;;;;;3.80;90.38;102387.41;4913003;29;45351;-85
2022/01/24 06:22:11;;;;;;;;;43.33;41.00;;;;;3.86;90.42;102401.75;4895779;29;47061;-85
2022/01/24 06:24:36;;;;;;;;;42.75;40.50;;;;;3.70;90.56;102377.06;4895399;29;45358;-85
2022/01/24 06:27:02;;;;;;;;;47.00;39.50;;;;;3.81;89.71;102397.09;4913263;29;45930;-85
2022/01/24 06:29:27;;;;;;;;;48.75;41.00;;;;;3.73;90.28;102385.13;4895230;29;44775;-84
2022/01/24 06:31:53;;;;;;;;;51.50;41.25;;;;;3.84;89.89;102404.31;4895274;29;46749;-85
2022/01/24 06:34:18;;;;;;;;;46.25;40.50;;;;;3.74;90.31;102389.63;4911516;29;45415;-85
2022/01/24 06:36:44;;;;;;;;;45.25;41.25;;;;;3.62;89.69;102378.25;4879173;29;45411;-85
2022/01/24 06:39:11;;;;;;;;;46.00;40.00;;;;;3.73;90.00;102407.91;4894598;29;44870;-84
2022/01/24 06:41:37;;;;;;;;;50.75;43.25;;;;;3.68;89.79;102398.81;4892777;29;47630;-85
2022/01/24 06:44:03;;;;;;;;;53.00;43.00;;;;;3.67;89.82;102402.25;4892827;29;45485;-85
2022/01/24 06:46:29;;;;;;;;;52.00;42.50;;;;;3.64;90.05;102392.44;4893785;29;45756;-85
2022/01/24 06:48:55;;;;;;;;;49.67;41.33;;;;;3.73;90.24;102408.81;4895555;29;45351;-85
2022/01/24 06:51:21;;;;;;;;;41.00;40.33;;;;;3.67;90.32;102397.88;4893732;29;47269;-85
2022/01/24 06:53:58;;;;;;;;;47.67;41.67;;;;;3.73;90.25;102414.09;4893361;29;45549;-85
2022/01/24 06:56:24;;;;;;;;;45.50;39.75;;;;;3.63;89.97;102410.72;4909749;29;45758;-85
2022/01/24 06:58:49;;;;;;;;;49.25;43.25;;;;;3.66;90.39;102417.13;4911821;29;45397;-86
2022/01/24 07:01:15;;;;;;;;;50.75;43.75;;;;;3.65;90.01;102417.00;4893485;29;47042;-85
2022/01/24 07:03:40;;;;;;;;;52.00;43.25;;;;;3.61;90.11;102410.63;4910220;29;44908;-86
2022/01/24 07:06:05;;;;;;;;;55.00;46.25;;;;;3.56;89.90;102405.03;4894462;29;45953;-85
2022/01/24 07:08:31;;;;;;;;;49.75;42.50;;;;;3.56;90.06;102417.28;4894041;29;45674;-86
2022/01/24 07:10:57;;;;;;;;;51.00;45.50;;;;;3.43;89.77;102393.56;4895204;29;47432;-86
2022/01/24 07:13:23;;;;;;;;;50.00;43.50;;;;;3.62;90.18;102416.81;4913069;29;45412;-86
2022/01/24 07:15:58;;;;;;;;;52.50;44.50;;;;;3.38;90.17;102393.25;4897209;29;45400;-86
2022/01/24 07:20:52;;;;;;;;;57.75;46.00;;;;;3.49;90.52;102410.66;4913281;29;46006;-85
2022/01/24 07:23:17;;;;;;;;;51.00;43.75;;;;;3.33;90.84;102379.78;4895320;29;45780;-87
2022/01/24 07:25:44;;;;;;;;;51.25;43.25;;;;;3.56;90.24;102438.34;4896532;29;45504;-85
2022/01/24 07:28:10;;;;;;;;;60.75;45.00;;;;;3.46;90.61;102414.84;4898812;29;45573;-86
2022/01/24 07:30:36;;;;;;;;;53.00;44.00;;;;;3.45;90.24;102411.25;4898599;29;47413;-86
2022/01/24 07:33:02;;;;;;;;;44.75;41.00;;;;;3.44;90.48;102416.44;4898901;29;45419;-86
2022/01/24 07:35:27;;;;;;;;;54.00;43.50;;;;;3.27;90.83;102374.06;4900013;28;45304;-86
2022/01/24 07:37:53;;;;;;;;;54.00;45.75;;;;;3.40;90.46;102400.44;4900195;28;44843;-85
2022/01/24 07:40:20;;;;;;;;;52.50;45.00;;;;;3.49;89.86;102417.66;4882813;29;48175;-85
2022/01/24 07:43:08;;;;;;;;;48.25;43.75;;;;;3.28;90.31;102391.69;4895748;29;45596;-85
2022/01/24 07:45:45;;;;;;;;;50.75;44.00;;;;;3.23;90.41;102376.38;4881859;29;45433;-85
2022/01/24 07:48:29;;;;;;;;;49.75;41.75;;;;;3.20;90.23;102363.94;4893924;29;45627;-86
2022/01/24 07:51:09;;;;;;;;;52.50;41.25;;;;;3.37;90.68;102396.66;4881170;29;45435;-85
2022/01/24 07:56:51;;;;;;;;;48.50;40.50;;;;;3.55;89.79;102415.44;736638;26;46177;-85
2022/01/24 07:59:46;;;;;;;;;51.00;42.50;;;;;3.39;90.89;102400.31;4897814;29;44826;-86
2022/01/24 08:05:52;;;;;;;;;44.75;41.00;;;;;3.70;90.40;102441.94;4873115;29;45466;-84
2022/01/24 08:08:22;;;;;;;;;48.00;41.75;;;;;3.49;90.16;102402.78;4873692;29;45391;-86
2022/01/24 08:10:49;;;;;;;;;57.25;44.00;;;;;3.73;90.25;102445.66;4904927;29;45603;-84
2022/01/24 08:13:31;;;;;;;;;51.00;41.50;;;;;3.84;89.83;102438.53;4895299;29;47046;-85
2022/01/24 08:16:27;;;;;;;;;49.25;42.75;;;;;3.74;90.29;102405.41;4914596;28;44786;-85
2022/01/24 08:19:22;;;;;;;;;59.00;48.00;;;;;3.95;90.01;102437.53;4916256;29;45702;-84
2022/01/24 08:22:06;;;;;;;;;57.25;45.50;;;;;3.89;89.91;102423.03;4914552;29;45053;-85
2022/01/24 08:24:44;;;;;;;;;62.25;48.25;;;;;3.88;89.93;102413.31;4898185;28;45315;-85
2022/01/24 08:27:38;;;;;;;;;68.00;53.75;;;;;4.05;89.54;102439.06;4897994;29;44761;-84
2022/01/24 08:34:19;;;;;;;;;68.00;55.00;;;;;4.09;90.02;102449.00;4926077;28;45509;-85
2022/01/24 08:37:40;;;;;;;;;;;;;;;;;;;;;
2022/01/24 08:40:32;;;;;;;;;51.25;45.25;;;;;4.05;89.88;102443.44;4918746;28;45435;-85
2022/01/24 08:46:27;;;;;;;;;62.00;49.25;;;;;4.10;89.82;102442.94;4904332;29;44806;-85
2022/01/24 08:49:07;;;;;;;;;62.00;48.25;;;;;4.11;90.38;102431.56;4901254;29;46628;-85
2022/01/24 08:52:11;;;;;;;;;63.75;51.25;;;;;4.33;89.90;102456.72;4911367;29;45535;-84
2022/01/24 08:55:23;;;;;;;;;61.25;46.75;;;;;4.31;89.25;102442.53;4918728;29;45103;-84
2022/01/24 09:15:11;;;;;;;;;60.50;47.75;;;;;4.75;89.11;102471.84;4849176;29;45483;-86
2022/01/24 09:31:20;;;;;;;;;54.25;45.00;;;;;4.59;88.20;102419.84;4974961;23;45104;-85
2022/01/24 09:34:11;;;;;;;;;62.25;46.75;;;;;4.79;88.51;102462.41;4904688;29;45429;-84
2022/01/24 09:37:10;;;;;;;;;53.50;47.00;;;;;4.74;88.29;102445.38;4900706;29;45472;-84
2022/01/24 09:40:15;;;;;;;;;59.50;45.50;;;;;4.94;88.03;102473.94;4898236;29;45947;-85
2022/01/24 09:43:08;;;;;;;;;63.25;49.00;;;;;4.80;88.58;102440.50;4886695;29;45500;-85
2022/01/24 09:46:15;;;;;;;;;52.25;45.75;;;;;4.87;88.62;102453.28;4907798;28;45484;-85
2022/01/24 09:49:06;;;;;;;;;68.00;50.75;;;;;4.85;88.01;102460.16;4916673;29;45428;-85
2022/01/24 09:51:54;;;;;;;;;61.50;49.50;;;;;4.66;88.02;102438.69;4884529;29;45329;-84
2022/01/24 09:55:11;;;;;;;;;57.00;48.25;;;;;4.94;88.46;102476.56;4914972;29;45312;-85
2022/01/24 10:18:06;;;;;;;;;57.75;46.25;;;;;5.22;87.20;102429.13;5011385;23;45655;-85
2022/01/24 10:20:48;;;;;;;;;52.00;44.75;;;;;5.34;87.26;102436.91;4884198;29;45391;-85
2022/01/24 10:23:31;;;;;;;;;55.50;44.00;;;;;5.46;87.02;102456.97;4885567;29;45504;-84
2022/01/24 10:26:04;;;;;;;;;42.75;36.00;;;;;5.20;87.52;102408.75;4914699;28;46278;-85
2022/01/24 10:28:47;;;;;;;;;59.00;47.25;;;;;5.57;87.09;102455.91;4911349;28;45569;-86
2022/01/24 10:31:48;;;;;;;;;56.25;46.25;;;;;5.67;86.35;102453.00;4915110;29;45002;-83
2022/01/24 10:36:47;;;;;;;;;50.00;40.00;;;;;5.68;86.35;102454.84;4917633;29;46021;-83
2022/01/24 10:39:54;;;;;;;;;56.00;46.00;;;;;5.50;86.90;102411.50;4884914;29;45431;-82
2022/01/24 10:45:32;;;;;;;;;57.75;43.75;;;;;5.79;86.72;102444.94;4888436;29;44904;-83
2022/01/24 10:48:14;;;;;;;;;56.50;46.50;;;;;5.85;86.48;102447.94;4902995;28;45874;-83
2022/01/24 10:50:41;;;;;;;;;46.75;40.00;;;;;5.65;86.24;102404.50;4916894;28;45603;-83
2022/01/24 10:53:18;;;;;;;;;51.50;45.75;;;;;5.57;85.95;102374.09;4899207;29;44845;-83
2022/01/24 10:55:56;;;;;;;;;54.25;46.75;;;;;5.97;85.28;102431.97;4884479;29;45447;-83
2022/01/24 10:58:39;;;;;;;;;58.75;48.50;;;;;5.77;85.63;102386.75;4899220;28;45339;-83
2022/01/24 11:01:28;;;;;;;;;56.25;46.25;;;;;6.13;86.17;102424.13;4883137;29;45227;-85
2022/01/24 11:04:26;;;;;;;;;61.25;48.00;;;;;5.97;85.36;102387.06;4896267;29;44826;-83
2022/01/24 11:10:37;;;;;;;;;57.25;47.25;;;;;6.08;85.74;102380.72;5075971;23;47218;-84
2022/01/24 11:13:07;;;;;;;;;62.75;48.50;;;;;6.29;85.48;102403.91;4900025;29;44882;-84
2022/01/24 11:15:48;;;;;;;;;59.50;47.75;;;;;6.44;84.16;102414.44;4901997;28;45309;-84
2022/01/24 11:18:18;;;;;;;;;56.25;46.00;;;;;6.31;84.77;102387.31;4887538;29;45320;-85
2022/01/24 11:21:01;;;;;;;;;50.67;42.67;;;;;6.48;84.66;102412.06;4900172;28;45494;-84
2022/01/24 11:23:43;;;;;;;;;54.00;41.00;;;;;6.50;83.44;102405.13;4899738;28;44905;-85
2022/01/24 11:26:49;;;;;;;;;55.50;42.75;;;;;6.50;84.63;102399.84;4901917;28;44889;-84
2022/01/24 11:29:44;;;;;;;;;45.75;42.75;;;;;6.55;84.23;102403.66;4885198;29;44905;-85
2022/01/24 11:32:40;;;;;;;;;;;;;;;;;;;;;
2022/01/24 11:36:07;;;;;;;;;46.67;41.00;;;;;6.38;83.00;102347.22;4888563;29;72781;-83
2022/01/24 11:39:10;;;;;;;;;;;;;;;;;;;;;
2022/01/24 11:41:45;;;;;;;;;52.75;46.50;;;;;6.58;84.20;102358.00;4907082;29;64915;-85
2022/01/24 11:44:20;;;;;;;;;52.50;42.25;;;;;6.67;83.76;102349.69;4912121;29;45375;-86
2022/01/24 11:47:31;;;;;;;;;49.50;42.25;;;;;6.91;83.54;102377.47;4912988;28;45390;-86
2022/01/24 11:51:03;;;;;;;;;;;;;;;;;;;;;
2022/01/24 11:54:10;;;;;;;;;;;;;;;;;;;;;
2022/01/24 11:57:18;;;;;;;;;49.75;43.50;;;;;7.05;83.07;102379.97;4834970;29;74460;-84
2022/01/24 12:03:31;;;;;;;;;50.00;41.33;;;;;6.99;81.57;102351.47;4789624;29;44848;-85
2022/01/24 12:06:14;;;;;;;;;48.75;36.25;;;;;6.90;79.20;102338.63;4769947;29;44964;-84
2022/01/24 12:18:27;;;;;;;;;52.00;41.00;;;;;7.16;80.19;102378.81;4926746;23;45825;-86
2022/01/24 12:21:56;;;;;;;;;54.00;43.67;;;;;7.25;82.20;102383.69;4880276;29;45197;-85
2022/01/24 12:28:17;;;;;;;;;56.00;43.75;;;;;7.41;81.38;102376.69;4810569;29;45874;-83
2022/01/24 12:42:52;;;;;;;;;49.33;42.00;;;;;7.51;78.95;102366.56;4989949;23;46958;-84
2022/01/24 12:48:28;;;;;;;;;51.00;43.00;;;;;7.17;79.02;102320.69;4842769;29;45524;-87
2022/01/24 12:51:24;;;;;;;;;42.00;37.33;;;;;7.47;80.76;102360.19;4858194;29;45354;-86
2022/01/24 12:54:44;;;;;;;;;51.50;45.00;;;;;7.54;80.90;102361.44;4819238;29;44826;-85
2022/01/24 12:57:40;;;;;;;;;46.33;41.00;;;;;7.61;79.87;102359.19;4857969;29;45545;-86
2022/01/24 13:00:22;;;;;;;;;54.50;44.00;;;;;7.61;77.70;102363.56;4857534;29;45596;-86
2022/01/24 13:03:16;;;;;;;;;51.67;42.33;;;;;7.47;78.97;102344.28;4859307;29;45335;-86
2022/01/24 13:05:43;;;;;;;;;44.75;41.75;;;;;7.53;78.14;102356.94;4862436;29;45413;-85
2022/01/24 13:08:15;;;;;;;;;58.50;45.25;;;;;7.32;79.03;102317.94;4857373;29;47002;-86
2022/01/24 13:10:48;;;;;;;;;50.75;42.50;;;;;7.37;78.32;102340.28;4839627;29;45786;-86
2022/01/24 13:13:20;;;;;;;;;53.00;44.33;;;;;7.34;79.91;102311.00;4855119;29;44900;-85
2022/01/24 13:22:04;;;;;;;;;56.25;43.00;;;;;7.68;79.47;102315.41;4842881;29;45723;-86
2022/01/24 13:24:37;;;;;;;;;58.25;45.25;;;;;7.69;77.02;102313.66;4842036;29;44847;-86
2022/01/24 13:27:05;;;;;;;;;52.33;45.67;;;;;7.84;78.38;102332.97;4858561;29;45532;-86
2022/01/24 13:29:41;;;;;;;;;50.75;43.75;;;;;7.59;77.87;102291.06;4858368;29;46754;-86
2022/01/24 13:32:08;;;;;;;;;56.00;44.50;;;;;7.77;77.94;102326.44;4844483;29;45329;-86
2022/01/24 13:34:41;;;;;;;;;50.67;41.33;;;;;7.85;78.64;102342.72;4863656;29;44942;-86
2022/01/24 13:37:10;;;;;;;;;55.00;44.67;;;;;7.62;77.83;102307.13;4857312;29;45441;-86
2022/01/24 13:39:36;;;;;;;;;47.33;41.00;;;;;7.73;77.52;102324.47;4854989;29;45655;-87
2022/01/24 13:42:01;;;;;;;;;37.33;33.33;;;;;7.79;77.84;102335.38;4856658;29;45124;-85
2022/01/24 13:44:35;;;;;;;;;45.00;40.67;;;;;7.62;78.84;102291.25;4839818;29;45450;-85
2022/01/24 13:47:15;;;;;;;;;49.67;42.00;;;;;7.71;79.54;102288.16;4858406;29;44855;-85
2022/01/24 13:49:44;;;;;;;;;42.33;38.00;;;;;7.91;79.32;102307.69;4832699;29;45545;-86
2022/01/24 13:52:18;;;;;;;;;41.33;38.33;;;;;8.04;76.83;102318.09;4843572;29;44916;-86
2022/01/24 13:54:44;;;;;;;;;43.33;36.00;;;;;8.04;75.43;102330.41;4846280;29;45388;-86
2022/01/24 13:57:20;;;;;;;;;42.33;34.00;;;;;8.02;76.20;102338.28;4843091;29;44937;-86
2022/01/24 13:59:46;;;;;;;;;43.00;39.33;;;;;7.99;76.99;102330.19;4856846;29;46650;-85
2022/01/24 14:02:27;;;;;;;;;36.33;34.67;;;;;8.06;76.50;102337.63;4861000;29;44758;-86
2022/01/24 14:04:57;;;;;;;;;46.00;38.67;;;;;7.96;75.98;102322.09;4844684;29;45420;-86
2022/01/24 14:07:41;;;;;;;;;41.67;33.00;;;;;8.08;77.69;102343.91;4859551;29;44895;-85
2022/01/24 14:10:15;;;;;;;;;43.00;33.00;;;;;7.94;78.01;102315.81;4861848;29;47097;-86
2022/01/24 14:12:48;;;;;;;;;39.67;34.67;;;;;8.15;78.21;102334.50;4855348;29;45265;-87
2022/01/24 14:15:42;;;;;;;;;35.67;32.67;;;;;8.17;76.64;102328.44;4844591;29;45476;-86
2022/01/24 14:20:56;;;;;;;;;39.67;37.00;;;;;8.02;77.54;102314.44;4859372;29;45509;-85
2022/01/24 14:23:49;;;;;;;;;41.67;35.33;;;;;8.23;77.28;102337.53;4860085;29;45783;-85
2022/01/24 14:26:28;;;;;;;;;44.00;38.33;;;;;8.25;77.03;102344.72;4862723;29;45301;-85
2022/01/24 14:29:09;;;;;;;;;39.33;35.00;;;;;8.28;76.52;102336.00;4860245;29;45763;-85
2022/01/24 14:31:36;;;;;;;;;44.33;36.67;;;;;8.25;76.90;102355.31;4846873;29;46614;-86
2022/01/24 14:34:07;;;;;;;;;41.33;35.33;;;;;8.33;77.73;102351.31;4860257;29;45498;-86
2022/01/24 14:37:06;;;;;;;;;35.67;31.67;;;;;8.40;77.70;102340.19;4857765;29;46630;-87
2022/01/24 14:39:51;;;;;;;;;35.00;32.00;;;;;8.44;77.77;102343.91;4879918;29;44905;-85
2022/01/24 14:42:33;;;;;;;;;39.00;36.67;;;;;8.37;78.10;102333.81;4830673;29;45905;-85
2022/01/24 14:45:00;;;;;;;;;44.00;31.67;;;;;8.41;75.91;102338.47;4862063;29;44909;-84
2022/01/24 14:47:34;;;;;;;;;43.67;37.67;;;;;8.43;76.24;102339.47;4851594;29;45525;-84
2022/01/24 14:50:05;;;;;;;;;27.33;24.67;;;;;8.12;76.33;102290.22;4851408;29;45527;-82
2022/01/24 14:52:35;;;;;;;;;36.00;34.00;;;;;8.32;77.49;102338.91;4834465;29;46712;-85
2022/01/24 14:55:06;;;;;;;;;43.00;39.67;;;;;8.35;77.71;102319.59;4855128;29;45556;-83
2022/01/24 14:57:35;;;;;;;;;43.33;37.67;;;;;8.26;76.08;102309.44;4857461;29;45835;-85
2022/01/24 15:00:04;;;;;;;;;41.33;34.33;;;;;8.29;76.25;102324.59;4844710;29;45472;-84
2022/01/24 15:02:30;;;;;;;;;35.00;34.33;;;;;8.13;77.41;102297.31;4854867;29;45381;-85
2022/01/24 15:04:55;;;;;;;;;31.33;28.67;;;;;8.37;77.85;102333.81;4860329;29;45397;-86
2022/01/24 15:07:23;;;;;;;;;38.67;33.33;;;;;8.49;76.55;102350.34;4870603;29;44919;-85
2022/01/24 15:09:51;;;;;;;;;43.33;37.33;;;;;8.35;76.28;102324.88;4858572;29;44947;-84
2022/01/24 15:12:17;;;;;;;;;32.00;30.67;;;;;8.37;76.06;102349.72;4844259;29;45452;-83
2022/01/24 15:14:46;;;;;;;;;35.67;34.33;;;;;8.40;77.32;102360.47;4841629;29;45484;-85
2022/01/24 15:25:41;;;;;;;;;33.67;31.00;;;;;8.49;78.16;102350.34;4857018;29;45372;-84
2022/01/24 15:28:12;;;;;;;;;43.33;38.00;;;;;8.45;78.05;102343.09;4841351;29;44816;-85
2022/01/24 15:30:40;;;;;;;;;39.00;35.00;;;;;8.31;77.94;102320.28;4863226;29;45874;-83
2022/01/24 15:33:06;;;;;;;;;42.67;31.67;;;;;8.56;78.26;102368.41;4843337;29;45379;-85
2022/01/24 15:35:35;;;;;;;;;36.67;32.00;;;;;8.47;77.84;102354.69;4849666;29;45028;-86
2022/01/24 15:38:08;;;;;;;;;35.67;30.33;;;;;8.46;77.62;102359.91;4830087;29;44959;-86
2022/01/24 15:40:41;;;;;;;;;36.67;33.33;;;;;8.57;78.38;102372.84;4853222;29;45503;-84